Pagrindinis puslapis
METAR-TAF:

METAR-TAF

Oro uostai :

Atka, Aliaska, Jungtinės Amerikos Valstijos

platuma: 52-13-13N, ilguma: 174-12-23W, Aukštis: 17 m

Dabartinis oras

Ataskaita buvo paskelbta 38 minutes, ne 04:15 UTC
Vėjas 12 kt iš Rytų/Pietryčių
Temperatūra 10°C
Drėgmė 93%
Slėgis 1019 hPa
Matomumas: 6.4 km
Mažai debesys ne aukštis 1500 ft
Apsiniaukę ne aukštis 5000 ft
lietus, rūkana

METAR: PAAK 160415Z AUTO 12012KT 4SM -RA BR FEW015 OVC050 10/09 A3009 RMK AO2 PNO $

Laikas: 20:53 (04:53 UTC)


TAF: trūkstamas

Orai ataskaitas ir orų prognozės (METAR, TAF).

turimą stotys yra geltonos ir raudonos taškus žemėlapyje.

Perkelti pele per norėdami pamatyti stoties vardą.

Tada spustelėkite, norėdami matyti oro stebėjimo ir prognozės.

Norėdami pakeisti žemėlapį: spustelėkite ant žalios mygtukų su juodo kryžiaus žemyn,; žalią mygtuką su brūkšneliu, jei norite nutolinti; arba žalių rodyklių gretimoms žemėlapius.


METAR-TAF: